sensor_id;sensor_type;location;lat;lon;timestamp;P1;durP1;ratioP1;P2;durP2;ratioP2
60014;SDS011;45867;52.480;6.056;2023-09-19T00:00:06;11.05;;;2.50;;
60014;SDS011;45867;52.480;6.056;2023-09-19T00:02:33;12.85;;;2.50;;
60014;SDS011;45867;52.480;6.056;2023-09-19T00:04:59;5.30;;;1.92;;
60014;SDS011;45867;52.480;6.056;2023-09-19T00:07:26;11.27;;;2.72;;
60014;SDS011;45867;52.480;6.056;2023-09-19T00:09:52;11.50;;;2.50;;
60014;SDS011;45867;52.480;6.056;2023-09-19T00:12:19;12.75;;;2.28;;
60014;SDS011;45867;52.480;6.056;2023-09-19T00:14:48;10.50;;;2.08;;
60014;SDS011;45867;52.480;6.056;2023-09-19T00:17:14;21.25;;;2.75;;
60014;SDS011;45867;52.480;6.056;2023-09-19T00:19:41;12.77;;;2.65;;
60014;SDS011;45867;52.480;6.056;2023-09-19T00:22:07;8.98;;;2.40;;
60014;SDS011;45867;52.480;6.056;2023-09-19T00:24:34;9.02;;;2.28;;
60014;SDS011;45867;52.480;6.056;2023-09-19T00:27:00;12.73;;;2.38;;
60014;SDS011;45867;52.480;6.056;2023-09-19T00:29:27;13.00;;;2.45;;
60014;SDS011;45867;52.480;6.056;2023-09-19T00:31:53;18.95;;;3.22;;
60014;SDS011;45867;52.480;6.056;2023-09-19T00:34:20;10.45;;;2.50;;
60014;SDS011;45867;52.480;6.056;2023-09-19T00:36:46;10.10;;;2.17;;
60014;SDS011;45867;52.480;6.056;2023-09-19T00:39:13;10.27;;;2.30;;
60014;SDS011;45867;52.480;6.056;2023-09-19T00:41:39;11.77;;;2.15;;
60014;SDS011;45867;52.480;6.056;2023-09-19T00:44:06;15.98;;;2.42;;
60014;SDS011;45867;52.480;6.056;2023-09-19T00:46:32;13.82;;;2.30;;
60014;SDS011;45867;52.480;6.056;2023-09-19T00:48:59;8.75;;;2.28;;
60014;SDS011;45867;52.480;6.056;2023-09-19T00:51:26;5.32;;;2.10;;
60014;SDS011;45867;52.480;6.056;2023-09-19T00:53:53;11.68;;;2.38;;
60014;SDS011;45867;52.480;6.056;2023-09-19T00:56:20;6.82;;;2.20;;
60014;SDS011;45867;52.480;6.056;2023-09-19T00:58:47;11.30;;;2.92;;
60014;SDS011;45867;52.480;6.056;2023-09-19T01:01:14;14.90;;;2.75;;
60014;SDS011;45867;52.480;6.056;2023-09-19T01:03:42;17.15;;;2.88;;
60014;SDS011;45867;52.480;6.056;2023-09-19T01:06:13;15.63;;;2.35;;
60014;SDS011;45867;52.480;6.056;2023-09-19T01:08:42;13.43;;;2.90;;
60014;SDS011;45867;52.480;6.056;2023-09-19T01:11:13;10.82;;;3.35;;
60014;SDS011;45867;52.480;6.056;2023-09-19T01:17:00;8.57;;;2.22;;
60014;SDS011;45867;52.480;6.056;2023-09-19T01:30:43;15.48;;;2.50;;
60014;SDS011;45867;52.480;6.056;2023-09-19T01:33:13;11.63;;;2.25;;
60014;SDS011;45867;52.480;6.056;2023-09-19T01:35:39;12.20;;;2.50;;
60014;SDS011;45867;52.480;6.056;2023-09-19T01:38:07;15.25;;;2.78;;
60014;SDS011;45867;52.480;6.056;2023-09-19T01:40:33;11.98;;;2.28;;
60014;SDS011;45867;52.480;6.056;2023-09-19T01:43:25;9.07;;;2.22;;
60014;SDS011;45867;52.480;6.056;2023-09-19T01:45:59;11.45;;;2.17;;
60014;SDS011;45867;52.480;6.056;2023-09-19T01:48:46;13.20;;;2.35;;
60014;SDS011;45867;52.480;6.056;2023-09-19T01:51:33;7.78;;;2.17;;
60014;SDS011;45867;52.480;6.056;2023-09-19T01:54:09;12.95;;;2.40;;
60014;SDS011;45867;52.480;6.056;2023-09-19T01:56:50;23.73;;;2.45;;
60014;SDS011;45867;52.480;6.056;2023-09-19T01:59:28;13.70;;;2.35;;
60014;SDS011;45867;52.480;6.056;2023-09-19T02:02:01;6.72;;;2.05;;
60014;SDS011;45867;52.480;6.056;2023-09-19T02:04:29;9.35;;;2.25;;
60014;SDS011;45867;52.480;6.056;2023-09-19T02:06:56;9.30;;;2.60;;
60014;SDS011;45867;52.480;6.056;2023-09-19T02:09:22;13.65;;;2.22;;
60014;SDS011;45867;52.480;6.056;2023-09-19T02:11:49;6.22;;;1.88;;
60014;SDS011;45867;52.480;6.056;2023-09-19T02:14:15;14.75;;;2.97;;
60014;SDS011;45867;52.480;6.056;2023-09-19T02:16:42;8.88;;;2.20;;
60014;SDS011;45867;52.480;6.056;2023-09-19T02:19:08;8.98;;;2.83;;
60014;SDS011;45867;52.480;6.056;2023-09-19T02:21:35;9.38;;;2.75;;
60014;SDS011;45867;52.480;6.056;2023-09-19T02:24:02;9.77;;;2.00;;
60014;SDS011;45867;52.480;6.056;2023-09-19T02:26:28;11.48;;;2.55;;
60014;SDS011;45867;52.480;6.056;2023-09-19T02:28:55;8.10;;;2.20;;
60014;SDS011;45867;52.480;6.056;2023-09-19T02:31:21;9.65;;;2.47;;
60014;SDS011;45867;52.480;6.056;2023-09-19T02:33:48;8.73;;;2.10;;
60014;SDS011;45867;52.480;6.056;2023-09-19T02:36:15;11.65;;;2.22;;
60014;SDS011;45867;52.480;6.056;2023-09-19T02:38:41;9.98;;;2.25;;
60014;SDS011;45867;52.480;6.056;2023-09-19T02:41:08;9.20;;;2.13;;
60014;SDS011;45867;52.480;6.056;2023-09-19T02:43:34;10.05;;;2.35;;
60014;SDS011;45867;52.480;6.056;2023-09-19T02:46:01;7.05;;;2.30;;
60014;SDS011;45867;52.480;6.056;2023-09-19T02:48:27;13.43;;;2.70;;
60014;SDS011;45867;52.480;6.056;2023-09-19T02:50:54;9.55;;;2.03;;
60014;SDS011;45867;52.480;6.056;2023-09-19T02:53:20;11.88;;;2.10;;
60014;SDS011;45867;52.480;6.056;2023-09-19T02:55:47;18.65;;;2.65;;
60014;SDS011;45867;52.480;6.056;2023-09-19T02:58:13;7.25;;;2.15;;
60014;SDS011;45867;52.480;6.056;2023-09-19T03:00:42;14.18;;;2.67;;
60014;SDS011;45867;52.480;6.056;2023-09-19T03:03:09;6.22;;;2.05;;
60014;SDS011;45867;52.480;6.056;2023-09-19T03:05:38;9.00;;;2.20;;
60014;SDS011;45867;52.480;6.056;2023-09-19T03:08:07;14.82;;;2.45;;
60014;SDS011;45867;52.480;6.056;2023-09-19T03:10:34;17.00;;;2.80;;
60014;SDS011;45867;52.480;6.056;2023-09-19T03:13:00;10.02;;;2.25;;
60014;SDS011;45867;52.480;6.056;2023-09-19T03:15:27;11.05;;;2.45;;
60014;SDS011;45867;52.480;6.056;2023-09-19T03:17:53;8.48;;;2.45;;
60014;SDS011;45867;52.480;6.056;2023-09-19T03:20:20;8.35;;;2.22;;
60014;SDS011;45867;52.480;6.056;2023-09-19T03:22:46;12.02;;;2.90;;
60014;SDS011;45867;52.480;6.056;2023-09-19T03:25:13;10.70;;;2.22;;
60014;SDS011;45867;52.480;6.056;2023-09-19T03:27:42;16.00;;;2.53;;
60014;SDS011;45867;52.480;6.056;2023-09-19T03:30:11;10.80;;;2.88;;
60014;SDS011;45867;52.480;6.056;2023-09-19T03:32:43;15.95;;;2.88;;
60014;SDS011;45867;52.480;6.056;2023-09-19T03:35:13;17.75;;;2.60;;
60014;SDS011;45867;52.480;6.056;2023-09-19T03:37:41;14.18;;;2.53;;
60014;SDS011;45867;52.480;6.056;2023-09-19T03:40:08;12.80;;;2.90;;
60014;SDS011;45867;52.480;6.056;2023-09-19T03:42:39;14.57;;;2.67;;
60014;SDS011;45867;52.480;6.056;2023-09-19T03:45:08;16.33;;;2.65;;
60014;SDS011;45867;52.480;6.056;2023-09-19T03:47:38;13.55;;;2.63;;
60014;SDS011;45867;52.480;6.056;2023-09-19T03:50:06;10.05;;;2.88;;
60014;SDS011;45867;52.480;6.056;2023-09-19T03:52:36;12.55;;;2.78;;
60014;SDS011;45867;52.480;6.056;2023-09-19T03:55:02;12.05;;;2.75;;
60014;SDS011;45867;52.480;6.056;2023-09-19T03:57:29;19.25;;;2.70;;
60014;SDS011;45867;52.480;6.056;2023-09-19T03:59:55;12.95;;;3.00;;
60014;SDS011;45867;52.480;6.056;2023-09-19T04:02:22;17.90;;;2.40;;
60014;SDS011;45867;52.480;6.056;2023-09-19T04:04:49;14.55;;;2.97;;
60014;SDS011;45867;52.480;6.056;2023-09-19T04:07:17;14.82;;;2.78;;
60014;SDS011;45867;52.480;6.056;2023-09-19T04:09:47;10.30;;;3.00;;
60014;SDS011;45867;52.480;6.056;2023-09-19T04:12:17;18.77;;;2.80;;
60014;SDS011;45867;52.480;6.056;2023-09-19T04:14:43;17.90;;;2.70;;
60014;SDS011;45867;52.480;6.056;2023-09-19T04:17:13;12.88;;;2.53;;
60014;SDS011;45867;52.480;6.056;2023-09-19T04:19:41;7.20;;;2.07;;
60014;SDS011;45867;52.480;6.056;2023-09-19T04:22:08;9.32;;;2.35;;
60014;SDS011;45867;52.480;6.056;2023-09-19T04:24:34;13.57;;;3.38;;
60014;SDS011;45867;52.480;6.056;2023-09-19T04:27:04;11.65;;;2.33;;
60014;SDS011;45867;52.480;6.056;2023-09-19T04:29:31;16.25;;;2.60;;
60014;SDS011;45867;52.480;6.056;2023-09-19T04:31:58;12.50;;;2.50;;
60014;SDS011;45867;52.480;6.056;2023-09-19T04:34:25;14.02;;;2.95;;
60014;SDS011;45867;52.480;6.056;2023-09-19T04:36:51;17.08;;;2.67;;
60014;SDS011;45867;52.480;6.056;2023-09-19T04:39:20;16.30;;;3.20;;
60014;SDS011;45867;52.480;6.056;2023-09-19T04:41:47;14.32;;;2.75;;
60014;SDS011;45867;52.480;6.056;2023-09-19T04:44:13;16.27;;;2.75;;
60014;SDS011;45867;52.480;6.056;2023-09-19T04:46:43;15.95;;;2.80;;
60014;SDS011;45867;52.480;6.056;2023-09-19T04:49:12;19.48;;;2.63;;
60014;SDS011;45867;52.480;6.056;2023-09-19T04:51:39;10.85;;;2.33;;
60014;SDS011;45867;52.480;6.056;2023-09-19T04:54:06;10.75;;;2.05;;
60014;SDS011;45867;52.480;6.056;2023-09-19T04:56:32;11.50;;;2.65;;
60014;SDS011;45867;52.480;6.056;2023-09-19T04:58:59;16.33;;;2.47;;
60014;SDS011;45867;52.480;6.056;2023-09-19T05:01:26;15.43;;;2.83;;
60014;SDS011;45867;52.480;6.056;2023-09-19T05:03:52;22.92;;;3.20;;
60014;SDS011;45867;52.480;6.056;2023-09-19T05:06:19;10.43;;;2.20;;
60014;SDS011;45867;52.480;6.056;2023-09-19T05:08:50;14.45;;;2.05;;
60014;SDS011;45867;52.480;6.056;2023-09-19T05:11:17;14.07;;;2.80;;
60014;SDS011;45867;52.480;6.056;2023-09-19T05:13:44;12.32;;;2.47;;
60014;SDS011;45867;52.480;6.056;2023-09-19T05:16:14;11.77;;;2.75;;
60014;SDS011;45867;52.480;6.056;2023-09-19T05:18:43;15.25;;;2.85;;
60014;SDS011;45867;52.480;6.056;2023-09-19T05:23:38;22.45;;;3.20;;
60014;SDS011;45867;52.480;6.056;2023-09-19T05:26:05;8.80;;;2.35;;
60014;SDS011;45867;52.480;6.056;2023-09-19T05:28:31;14.32;;;2.83;;
60014;SDS011;45867;52.480;6.056;2023-09-19T05:31:00;15.27;;;2.67;;
60014;SDS011;45867;52.480;6.056;2023-09-19T05:33:27;22.27;;;2.70;;
60014;SDS011;45867;52.480;6.056;2023-09-19T05:35:55;7.80;;;2.13;;
60014;SDS011;45867;52.480;6.056;2023-09-19T05:38:22;8.57;;;2.25;;
60014;SDS011;45867;52.480;6.056;2023-09-19T05:40:48;14.75;;;2.72;;
60014;SDS011;45867;52.480;6.056;2023-09-19T05:43:15;16.90;;;3.22;;
60014;SDS011;45867;52.480;6.056;2023-09-19T05:45:41;16.38;;;3.13;;
60014;SDS011;45867;52.480;6.056;2023-09-19T05:48:09;8.88;;;2.35;;
60014;SDS011;45867;52.480;6.056;2023-09-19T05:50:42;13.50;;;2.55;;
60014;SDS011;45867;52.480;6.056;2023-09-19T05:53:09;22.90;;;3.15;;
60014;SDS011;45867;52.480;6.056;2023-09-19T05:55:38;15.68;;;2.78;;
60014;SDS011;45867;52.480;6.056;2023-09-19T05:58:04;10.20;;;2.03;;
60014;SDS011;45867;52.480;6.056;2023-09-19T06:00:31;15.40;;;2.58;;
60014;SDS011;45867;52.480;6.056;2023-09-19T06:02:58;18.15;;;2.63;;
60014;SDS011;45867;52.480;6.056;2023-09-19T06:05:25;10.98;;;2.60;;
60014;SDS011;45867;52.480;6.056;2023-09-19T06:07:54;17.45;;;2.92;;
60014;SDS011;45867;52.480;6.056;2023-09-19T06:10:20;19.85;;;2.88;;
60014;SDS011;45867;52.480;6.056;2023-09-19T06:12:47;13.35;;;2.58;;
60014;SDS011;45867;52.480;6.056;2023-09-19T06:15:14;11.52;;;2.28;;
60014;SDS011;45867;52.480;6.056;2023-09-19T06:17:49;11.90;;;2.47;;
60014;SDS011;45867;52.480;6.056;2023-09-19T06:20:18;20.13;;;3.53;;
60014;SDS011;45867;52.480;6.056;2023-09-19T06:22:44;17.08;;;3.10;;
60014;SDS011;45867;52.480;6.056;2023-09-19T06:25:12;17.00;;;2.60;;
60014;SDS011;45867;52.480;6.056;2023-09-19T06:27:51;13.70;;;2.55;;
60014;SDS011;45867;52.480;6.056;2023-09-19T06:30:19;10.85;;;2.50;;
60014;SDS011;45867;52.480;6.056;2023-09-19T06:33:00;9.00;;;2.50;;
60014;SDS011;45867;52.480;6.056;2023-09-19T06:35:31;9.00;;;2.60;;
60014;SDS011;45867;52.480;6.056;2023-09-19T06:38:03;18.60;;;3.30;;
60014;SDS011;45867;52.480;6.056;2023-09-19T06:40:30;14.75;;;2.42;;
60014;SDS011;45867;52.480;6.056;2023-09-19T06:42:57;12.88;;;3.00;;
60014;SDS011;45867;52.480;6.056;2023-09-19T06:45:25;10.27;;;2.67;;
60014;SDS011;45867;52.480;6.056;2023-09-19T06:47:52;12.73;;;2.88;;
60014;SDS011;45867;52.480;6.056;2023-09-19T06:50:19;13.93;;;2.30;;
60014;SDS011;45867;52.480;6.056;2023-09-19T06:52:47;13.35;;;2.40;;
60014;SDS011;45867;52.480;6.056;2023-09-19T06:55:14;11.82;;;2.92;;
60014;SDS011;45867;52.480;6.056;2023-09-19T06:57:40;10.32;;;2.50;;
60014;SDS011;45867;52.480;6.056;2023-09-19T07:00:07;14.60;;;2.80;;
60014;SDS011;45867;52.480;6.056;2023-09-19T07:02:34;9.52;;;2.35;;
60014;SDS011;45867;52.480;6.056;2023-09-19T07:05:01;13.05;;;3.03;;
60014;SDS011;45867;52.480;6.056;2023-09-19T07:07:27;8.93;;;2.38;;
60014;SDS011;45867;52.480;6.056;2023-09-19T07:09:54;19.50;;;2.55;;
60014;SDS011;45867;52.480;6.056;2023-09-19T07:12:20;16.67;;;2.80;;
60014;SDS011;45867;52.480;6.056;2023-09-19T07:14:47;14.45;;;2.60;;
60014;SDS011;45867;52.480;6.056;2023-09-19T07:17:13;13.77;;;2.55;;
60014;SDS011;45867;52.480;6.056;2023-09-19T07:19:42;15.07;;;3.00;;
60014;SDS011;45867;52.480;6.056;2023-09-19T07:22:09;12.02;;;2.72;;
60014;SDS011;45867;52.480;6.056;2023-09-19T07:24:38;12.55;;;3.47;;
60014;SDS011;45867;52.480;6.056;2023-09-19T07:27:04;12.93;;;2.47;;
60014;SDS011;45867;52.480;6.056;2023-09-19T07:29:30;18.92;;;2.95;;
60014;SDS011;45867;52.480;6.056;2023-09-19T07:31:57;16.42;;;3.05;;
60014;SDS011;45867;52.480;6.056;2023-09-19T07:34:24;16.30;;;2.55;;
60014;SDS011;45867;52.480;6.056;2023-09-19T07:36:51;17.75;;;2.90;;
60014;SDS011;45867;52.480;6.056;2023-09-19T07:39:17;10.75;;;2.63;;
60014;SDS011;45867;52.480;6.056;2023-09-19T07:41:48;5.55;;;1.88;;
60014;SDS011;45867;52.480;6.056;2023-09-19T07:44:15;13.02;;;2.80;;
60014;SDS011;45867;52.480;6.056;2023-09-19T07:46:45;13.80;;;3.08;;
60014;SDS011;45867;52.480;6.056;2023-09-19T07:49:11;19.42;;;2.63;;
60014;SDS011;45867;52.480;6.056;2023-09-19T07:51:38;10.82;;;2.30;;
60014;SDS011;45867;52.480;6.056;2023-09-19T07:54:05;11.20;;;2.42;;
60014;SDS011;45867;52.480;6.056;2023-09-19T07:56:31;12.38;;;2.65;;
60014;SDS011;45867;52.480;6.056;2023-09-19T07:58:57;19.98;;;3.00;;
60014;SDS011;45867;52.480;6.056;2023-09-19T08:01:24;14.88;;;3.50;;
60014;SDS011;45867;52.480;6.056;2023-09-19T08:03:51;16.30;;;2.92;;
60014;SDS011;45867;52.480;6.056;2023-09-19T08:06:18;10.32;;;2.22;;
60014;SDS011;45867;52.480;6.056;2023-09-19T08:08:44;13.13;;;2.03;;
60014;SDS011;45867;52.480;6.056;2023-09-19T08:11:14;16.77;;;2.88;;
60014;SDS011;45867;52.480;6.056;2023-09-19T08:13:43;11.55;;;2.80;;
60014;SDS011;45867;52.480;6.056;2023-09-19T08:16:10;8.48;;;2.35;;
60014;SDS011;45867;52.480;6.056;2023-09-19T08:18:39;11.02;;;2.00;;
60014;SDS011;45867;52.480;6.056;2023-09-19T08:21:06;15.18;;;2.88;;
60014;SDS011;45867;52.480;6.056;2023-09-19T08:23:32;17.35;;;2.97;;
60014;SDS011;45867;52.480;6.056;2023-09-19T08:25:59;6.95;;;2.53;;
60014;SDS011;45867;52.480;6.056;2023-09-19T08:28:26;14.85;;;2.35;;
60014;SDS011;45867;52.480;6.056;2023-09-19T08:30:53;14.65;;;2.63;;
60014;SDS011;45867;52.480;6.056;2023-09-19T08:33:19;12.30;;;2.60;;
60014;SDS011;45867;52.480;6.056;2023-09-19T08:35:46;14.18;;;2.22;;
60014;SDS011;45867;52.480;6.056;2023-09-19T08:38:12;13.90;;;2.83;;
60014;SDS011;45867;52.480;6.056;2023-09-19T08:40:39;17.60;;;2.95;;
60014;SDS011;45867;52.480;6.056;2023-09-19T08:43:05;12.45;;;3.15;;
60014;SDS011;45867;52.480;6.056;2023-09-19T08:45:32;12.90;;;2.67;;
60014;SDS011;45867;52.480;6.056;2023-09-19T08:50:56;11.77;;;2.60;;
60014;SDS011;45867;52.480;6.056;2023-09-19T08:53:50;13.35;;;2.72;;
60014;SDS011;45867;52.480;6.056;2023-09-19T08:58:53;12.45;;;3.10;;
60014;SDS011;45867;52.480;6.056;2023-09-19T09:01:27;10.68;;;2.40;;
60014;SDS011;45867;52.480;6.056;2023-09-19T09:03:55;14.27;;;2.92;;
60014;SDS011;45867;52.480;6.056;2023-09-19T09:06:23;20.58;;;3.10;;
60014;SDS011;45867;52.480;6.056;2023-09-19T09:08:51;15.98;;;3.10;;
60014;SDS011;45867;52.480;6.056;2023-09-19T09:11:19;18.55;;;2.83;;
60014;SDS011;45867;52.480;6.056;2023-09-19T09:13:47;17.35;;;3.00;;
60014;SDS011;45867;52.480;6.056;2023-09-19T09:16:14;10.63;;;2.63;;
60014;SDS011;45867;52.480;6.056;2023-09-19T09:18:41;16.50;;;3.05;;
60014;SDS011;45867;52.480;6.056;2023-09-19T09:21:07;18.02;;;3.28;;
60014;SDS011;45867;52.480;6.056;2023-09-19T09:23:37;11.23;;;2.72;;
60014;SDS011;45867;52.480;6.056;2023-09-19T09:26:04;12.90;;;3.33;;
60014;SDS011;45867;52.480;6.056;2023-09-19T09:28:31;7.75;;;2.92;;
60014;SDS011;45867;52.480;6.056;2023-09-19T09:30:58;15.02;;;3.53;;
60014;SDS011;45867;52.480;6.056;2023-09-19T09:33:26;21.15;;;3.42;;
60014;SDS011;45867;52.480;6.056;2023-09-19T09:38:21;26.27;;;3.72;;
60014;SDS011;45867;52.480;6.056;2023-09-19T09:40:51;16.13;;;3.10;;
60014;SDS011;45867;52.480;6.056;2023-09-19T09:43:28;12.55;;;2.60;;
60014;SDS011;45867;52.480;6.056;2023-09-19T09:46:14;13.10;;;3.80;;
60014;SDS011;45867;52.480;6.056;2023-09-19T09:48:42;13.18;;;3.15;;
60014;SDS011;45867;52.480;6.056;2023-09-19T09:51:13;14.23;;;3.42;;
60014;SDS011;45867;52.480;6.056;2023-09-19T09:53:39;20.25;;;3.55;;
60014;SDS011;45867;52.480;6.056;2023-09-19T09:56:07;13.57;;;2.97;;
60014;SDS011;45867;52.480;6.056;2023-09-19T10:01:02;12.35;;;3.42;;
60014;SDS011;45867;52.480;6.056;2023-09-19T10:03:37;10.80;;;2.72;;
60014;SDS011;45867;52.480;6.056;2023-09-19T10:06:08;14.90;;;3.00;;
60014;SDS011;45867;52.480;6.056;2023-09-19T10:08:39;13.27;;;3.03;;
60014;SDS011;45867;52.480;6.056;2023-09-19T10:11:17;8.43;;;2.53;;
60014;SDS011;45867;52.480;6.056;2023-09-19T10:13:44;11.23;;;2.85;;
60014;SDS011;45867;52.480;6.056;2023-09-19T10:16:12;15.55;;;2.90;;
60014;SDS011;45867;52.480;6.056;2023-09-19T10:18:43;15.35;;;3.05;;
60014;SDS011;45867;52.480;6.056;2023-09-19T10:21:13;16.27;;;3.08;;
60014;SDS011;45867;52.480;6.056;2023-09-19T10:23:43;12.13;;;2.60;;
60014;SDS011;45867;52.480;6.056;2023-09-19T10:26:12;8.50;;;2.75;;
60014;SDS011;45867;52.480;6.056;2023-09-19T10:28:46;13.85;;;2.58;;
60014;SDS011;45867;52.480;6.056;2023-09-19T10:31:19;14.15;;;3.33;;
60014;SDS011;45867;52.480;6.056;2023-09-19T10:33:47;13.80;;;2.75;;
60014;SDS011;45867;52.480;6.056;2023-09-19T10:36:18;13.77;;;2.63;;
60014;SDS011;45867;52.480;6.056;2023-09-19T10:38:46;12.88;;;2.67;;
60014;SDS011;45867;52.480;6.056;2023-09-19T10:41:18;11.63;;;2.28;;
60014;SDS011;45867;52.480;6.056;2023-09-19T10:43:48;10.07;;;2.88;;
60014;SDS011;45867;52.480;6.056;2023-09-19T10:46:17;12.50;;;2.65;;
60014;SDS011;45867;52.480;6.056;2023-09-19T10:48:44;20.27;;;2.95;;
60014;SDS011;45867;52.480;6.056;2023-09-19T10:51:16;14.23;;;3.22;;
60014;SDS011;45867;52.480;6.056;2023-09-19T10:53:56;8.65;;;2.42;;
60014;SDS011;45867;52.480;6.056;2023-09-19T10:56:29;10.50;;;2.50;;
60014;SDS011;45867;52.480;6.056;2023-09-19T11:04:33;12.45;;;2.53;;
60014;SDS011;45867;52.480;6.056;2023-09-19T11:07:05;20.65;;;2.75;;
60014;SDS011;45867;52.480;6.056;2023-09-19T11:14:57;12.30;;;2.20;;
60014;SDS011;45867;52.480;6.056;2023-09-19T11:33:18;15.20;;;2.60;;
60014;SDS011;45867;52.480;6.056;2023-09-19T11:43:48;9.80;;;2.30;;
60014;SDS011;45867;52.480;6.056;2023-09-19T11:46:15;9.40;;;2.63;;
60014;SDS011;45867;52.480;6.056;2023-09-19T11:48:43;9.57;;;2.33;;
60014;SDS011;45867;52.480;6.056;2023-09-19T11:51:13;7.60;;;2.20;;
60014;SDS011;45867;52.480;6.056;2023-09-19T11:53:46;10.32;;;2.15;;
60014;SDS011;45867;52.480;6.056;2023-09-19T11:56:17;9.02;;;2.50;;
60014;SDS011;45867;52.480;6.056;2023-09-19T11:58:48;9.70;;;2.67;;
60014;SDS011;45867;52.480;6.056;2023-09-19T12:01:21;15.32;;;3.00;;
60014;SDS011;45867;52.480;6.056;2023-09-19T12:04:10;8.05;;;2.17;;
60014;SDS011;45867;52.480;6.056;2023-09-19T12:06:38;7.38;;;2.30;;
60014;SDS011;45867;52.480;6.056;2023-09-19T12:09:04;11.55;;;2.90;;
60014;SDS011;45867;52.480;6.056;2023-09-19T12:11:31;12.77;;;2.80;;
60014;SDS011;45867;52.480;6.056;2023-09-19T12:13:58;7.10;;;2.28;;
60014;SDS011;45867;52.480;6.056;2023-09-19T12:16:25;10.75;;;2.78;;
60014;SDS011;45867;52.480;6.056;2023-09-19T12:18:51;6.93;;;2.45;;
60014;SDS011;45867;52.480;6.056;2023-09-19T12:21:28;6.65;;;2.00;;
60014;SDS011;45867;52.480;6.056;2023-09-19T12:23:57;7.82;;;2.10;;
60014;SDS011;45867;52.480;6.056;2023-09-19T12:26:25;7.18;;;2.22;;
60014;SDS011;45867;52.480;6.056;2023-09-19T12:28:52;11.55;;;2.58;;
60014;SDS011;45867;52.480;6.056;2023-09-19T12:31:20;10.93;;;2.20;;
60014;SDS011;45867;52.480;6.056;2023-09-19T12:33:46;8.57;;;2.40;;
60014;SDS011;45867;52.480;6.056;2023-09-19T12:36:20;6.82;;;2.30;;
60014;SDS011;45867;52.480;6.056;2023-09-19T12:38:47;12.70;;;2.10;;
60014;SDS011;45867;52.480;6.056;2023-09-19T12:41:14;9.07;;;2.10;;
60014;SDS011;45867;52.480;6.056;2023-09-19T12:43:43;6.47;;;2.05;;
60014;SDS011;45867;52.480;6.056;2023-09-19T12:46:12;12.95;;;2.28;;
60014;SDS011;45867;52.480;6.056;2023-09-19T12:48:39;10.77;;;2.30;;
60014;SDS011;45867;52.480;6.056;2023-09-19T12:51:09;10.05;;;2.08;;
60014;SDS011;45867;52.480;6.056;2023-09-19T12:53:43;12.15;;;2.47;;
60014;SDS011;45867;52.480;6.056;2023-09-19T12:56:11;10.57;;;2.15;;
60014;SDS011;45867;52.480;6.056;2023-09-19T12:58:52;8.25;;;1.95;;
60014;SDS011;45867;52.480;6.056;2023-09-19T13:01:20;7.82;;;1.73;;
60014;SDS011;45867;52.480;6.056;2023-09-19T13:04:09;9.52;;;2.00;;
60014;SDS011;45867;52.480;6.056;2023-09-19T13:06:43;6.28;;;2.08;;
60014;SDS011;45867;52.480;6.056;2023-09-19T13:09:13;11.70;;;2.00;;
60014;SDS011;45867;52.480;6.056;2023-09-19T13:11:39;5.30;;;1.80;;
60014;SDS011;45867;52.480;6.056;2023-09-19T13:16:53;8.27;;;1.85;;
60014;SDS011;45867;52.480;6.056;2023-09-19T13:19:36;10.75;;;2.17;;
60014;SDS011;45867;52.480;6.056;2023-09-19T13:25:04;7.07;;;1.90;;
60014;SDS011;45867;52.480;6.056;2023-09-19T13:27:41;6.78;;;1.73;;
60014;SDS011;45867;52.480;6.056;2023-09-19T13:30:09;4.45;;;1.52;;
60014;SDS011;45867;52.480;6.056;2023-09-19T13:32:38;5.78;;;1.60;;
60014;SDS011;45867;52.480;6.056;2023-09-19T13:35:05;5.93;;;1.65;;
60014;SDS011;45867;52.480;6.056;2023-09-19T13:37:32;7.32;;;1.75;;
60014;SDS011;45867;52.480;6.056;2023-09-19T13:39:59;7.10;;;1.90;;
60014;SDS011;45867;52.480;6.056;2023-09-19T13:42:26;5.40;;;1.42;;
60014;SDS011;45867;52.480;6.056;2023-09-19T13:44:55;9.45;;;1.73;;
60014;SDS011;45867;52.480;6.056;2023-09-19T13:47:22;4.63;;;1.40;;
60014;SDS011;45867;52.480;6.056;2023-09-19T13:49:48;6.35;;;1.60;;
60014;SDS011;45867;52.480;6.056;2023-09-19T13:52:15;7.75;;;1.63;;
60014;SDS011;45867;52.480;6.056;2023-09-19T13:54:41;9.13;;;1.63;;
60014;SDS011;45867;52.480;6.056;2023-09-19T13:57:08;8.60;;;1.67;;
60014;SDS011;45867;52.480;6.056;2023-09-19T13:59:36;4.45;;;2.28;;
60014;SDS011;45867;52.480;6.056;2023-09-19T14:02:03;11.13;;;1.90;;
60014;SDS011;45867;52.480;6.056;2023-09-19T14:04:29;6.65;;;2.20;;
60014;SDS011;45867;52.480;6.056;2023-09-19T14:06:56;7.90;;;2.50;;
60014;SDS011;45867;52.480;6.056;2023-09-19T14:09:23;8.52;;;2.00;;
60014;SDS011;45867;52.480;6.056;2023-09-19T14:12:00;4.05;;;1.40;;
60014;SDS011;45867;52.480;6.056;2023-09-19T14:14:26;9.68;;;1.80;;
60014;SDS011;45867;52.480;6.056;2023-09-19T14:16:53;8.20;;;1.60;;
60014;SDS011;45867;52.480;6.056;2023-09-19T14:19:20;7.65;;;1.70;;
60014;SDS011;45867;52.480;6.056;2023-09-19T14:21:47;9.93;;;1.90;;
60014;SDS011;45867;52.480;6.056;2023-09-19T14:24:19;9.82;;;2.00;;
60014;SDS011;45867;52.480;6.056;2023-09-19T14:26:46;7.55;;;1.70;;
60014;SDS011;45867;52.480;6.056;2023-09-19T14:29:12;9.55;;;1.50;;
60014;SDS011;45867;52.480;6.056;2023-09-19T14:31:39;8.93;;;1.90;;
60014;SDS011;45867;52.480;6.056;2023-09-19T14:34:06;15.73;;;1.85;;
60014;SDS011;45867;52.480;6.056;2023-09-19T14:36:33;9.02;;;1.55;;
60014;SDS011;45867;52.480;6.056;2023-09-19T14:38:59;6.07;;;1.30;;
60014;SDS011;45867;52.480;6.056;2023-09-19T14:41:26;5.15;;;1.63;;
60014;SDS011;45867;52.480;6.056;2023-09-19T14:43:54;4.82;;;1.65;;
60014;SDS011;45867;52.480;6.056;2023-09-19T14:46:21;7.35;;;1.38;;
60014;SDS011;45867;52.480;6.056;2023-09-19T14:48:47;7.10;;;1.60;;
60014;SDS011;45867;52.480;6.056;2023-09-19T14:51:14;4.97;;;1.42;;
60014;SDS011;45867;52.480;6.056;2023-09-19T14:53:43;4.68;;;1.42;;
60014;SDS011;45867;52.480;6.056;2023-09-19T14:56:15;4.63;;;1.60;;
60014;SDS011;45867;52.480;6.056;2023-09-19T14:58:42;6.55;;;1.90;;
60014;SDS011;45867;52.480;6.056;2023-09-19T15:01:10;10.15;;;1.70;;
60014;SDS011;45867;52.480;6.056;2023-09-19T15:03:38;7.90;;;1.73;;
60014;SDS011;45867;52.480;6.056;2023-09-19T15:06:10;8.82;;;2.13;;
60014;SDS011;45867;52.480;6.056;2023-09-19T15:08:43;3.25;;;1.20;;
60014;SDS011;45867;52.480;6.056;2023-09-19T15:11:11;12.65;;;1.75;;
60014;SDS011;45867;52.480;6.056;2023-09-19T15:13:38;11.85;;;1.52;;
60014;SDS011;45867;52.480;6.056;2023-09-19T15:16:07;7.95;;;1.65;;
60014;SDS011;45867;52.480;6.056;2023-09-19T15:18:34;6.55;;;1.42;;
60014;SDS011;45867;52.480;6.056;2023-09-19T15:21:02;20.63;;;2.08;;
60014;SDS011;45867;52.480;6.056;2023-09-19T15:23:29;5.13;;;1.63;;
60014;SDS011;45867;52.480;6.056;2023-09-19T15:25:58;9.65;;;1.92;;
60014;SDS011;45867;52.480;6.056;2023-09-19T15:28:25;19.10;;;1.73;;
60014;SDS011;45867;52.480;6.056;2023-09-19T15:30:57;6.35;;;1.60;;
60014;SDS011;45867;52.480;6.056;2023-09-19T15:33:25;3.08;;;1.58;;
60014;SDS011;45867;52.480;6.056;2023-09-19T15:35:51;6.45;;;1.83;;
60014;SDS011;45867;52.480;6.056;2023-09-19T15:38:18;5.00;;;1.48;;
60014;SDS011;45867;52.480;6.056;2023-09-19T15:40:47;14.30;;;2.10;;
60014;SDS011;45867;52.480;6.056;2023-09-19T15:43:14;5.30;;;1.42;;
60014;SDS011;45867;52.480;6.056;2023-09-19T15:45:43;7.35;;;1.77;;
60014;SDS011;45867;52.480;6.056;2023-09-19T15:48:13;4.63;;;1.27;;
60014;SDS011;45867;52.480;6.056;2023-09-19T15:50:42;9.57;;;2.10;;
60014;SDS011;45867;52.480;6.056;2023-09-19T15:53:09;3.83;;;1.52;;